KCRS/CRS METAR and TAF weather

Enter ICAO airport designator
Station Type Date Time Source
KCRS METAR 2018/04/19 12:53 UTC NOAA

KCRS 191253Z AUTO 35004KT 10SM CLR 11/05 A3034 RMK AO2 SLP271 T01060050


Station Type Date Time Source
KCRS Decoded METAR 2018/04/19 12:53 UTC NOAA

CORSICANA AIRFIELD, TX, United States (KCRS) 32-01N 96-23W 133M
Apr 19, 2018 - 08:53 AM EDT / 2018.04.19 1253 UTC
Wind: from the N (350 degrees) at 5 MPH (4 KT):0
Visibility: 10 mile(s):0
Sky conditions: clear
Temperature: 51.1 F (10.6 C)
Dew Point: 41.0 F (5.0 C)
Relative Humidity: 68%
Pressure (altimeter): 30.34 in. Hg (1027 hPa)
ob: KCRS 191253Z AUTO 35004KT 10SM CLR 11/05 A3034 RMK AO2 SLP271 T01060050
cycle: 13

Station Type Date Time Source
KCRS TAF UTC NOAA

Error!


Example: see airport list